aviador You're here:

KMCW Decoded Metar

MASON CITY in IA, USA
Report Time2018-06-17 20:53:00
UTC Time2018-06-17 21:43:36
Flight Rules vfr VFR
Wind210° at 15 Gusting to 25 kt
W.Decomp.*RWY 18: 13.6 kt HW 6.3 kt RCW
RWY 12: 1.3 kt HW 14.9 kt RCW
W.Rank210° ranks 18
Current wind is above 210° avg. (9.7)
Visibility9999 m
Phenomena:N/A
Clouds:N/A
Expected CloudBase > 3,200 ft AGL from Temp-Dew spread
CeilingNone
Temp31°C (ISA +18)
Dew Point23°C (62% RH)
Heat Index35.4°C
AAT30.8°C
QNH1012 hPa
Density Alt3,720 ft
Elevation1,211 ft
Report Wrong Elevation
Raw Report
KMCW 172053Z AUTO 21015G25KT 10SM CLR 31/23 A2988 RMK AO2 PK WND
20030/2016 SLP103 T03110228 53002=

Extra information for KMCW:More info

Metar Taf Metar & Taf Last 4 Metars F.Rules Stats Wind Profile Meteogram Temp Stats Airport Information Weather charts Add Link Nearby VenuesMetar ALERT Operation Metar Decoded Social comments

AIRNAV info for KMCW